Time;durP1;ratioP1;P1;durP2;ratioP2;P2;SDS_P1;SDS_P2;PMS_P1;PMS_P2;Temp;Humidity;BMP_temperature;BMP_pressure;BME280_temperature;BME280_humidity;BME280_pressure;Samples;Min_cycle;Max_cycle;Signal;HPM_P1;HPM_P2
2023/06/27 00:00:18;;;;;;;8.73;5.72;;;;;;;17.34;78.20;100753.59;10509375;28;20036;-91
2023/06/27 00:05:21;;;;;;;9.20;5.90;;;;;;;17.35;78.09;100759.97;10480016;28;20411;-88
2023/06/27 00:10:24;;;;;;;9.98;6.03;;;;;;;17.29;78.12;100764.84;10477471;28;20041;-91
2023/06/27 00:15:29;;;;;;;10.45;5.95;;;;;;;17.23;78.70;100757.03;10476079;28;20130;-87
2023/06/27 00:20:34;;;;;;;11.00;6.25;;;;;;;17.23;78.43;100751.47;10486613;28;20044;-90
2023/06/27 00:25:36;;;;;;;10.82;6.43;;;;;;;17.23;78.40;100751.47;10477584;28;20052;-87
2023/06/27 00:30:39;;;;;;;10.82;5.72;;;;;;;17.29;79.13;100748.22;10490739;28;20404;-90
2023/06/27 00:35:41;;;;;;;9.10;6.32;;;;;;;17.33;78.06;100742.84;10453917;28;20055;-87
2023/06/27 00:40:43;;;;;;;8.85;6.03;;;;;;;17.24;77.42;100748.38;10475111;28;20041;-92
2023/06/27 00:45:45;;;;;;;9.35;6.30;;;;;;;17.20;77.95;100744.63;10488330;28;20071;-90
2023/06/27 00:50:49;;;;;;;9.52;6.20;;;;;;;17.17;77.90;100751.59;10471348;28;20052;-90
2023/06/27 00:55:51;;;;;;;9.15;6.05;;;;;;;17.03;78.64;100748.16;10471345;28;20036;-89
2023/06/27 01:00:53;;;;;;;9.23;6.10;;;;;;;16.93;79.14;100747.63;10470159;28;20048;-90
2023/06/27 01:05:56;;;;;;;14.15;6.97;;;;;;;16.85;79.99;100741.75;10472768;28;20664;-91
2023/06/27 01:11:09;;;;;;;12.18;6.75;;;;;;;16.95;79.97;100742.59;10471914;28;20043;-88
2023/06/27 01:16:11;;;;;;;11.93;7.25;;;;;;;16.95;79.93;100737.84;10494243;28;20041;-89
2023/06/27 01:21:15;;;;;;;11.02;7.13;;;;;;;17.06;79.02;100739.19;10476417;28;20393;-88
2023/06/27 01:26:17;;;;;;;11.18;6.93;;;;;;;17.05;79.45;100734.78;10467811;28;20051;-89
2023/06/27 01:31:45;;;;;;;9.60;6.45;;;;;;;17.09;79.02;100730.22;10462489;28;20062;-92
2023/06/27 01:36:55;;;;;;;11.93;6.47;;;;;;;17.16;78.86;100727.78;10455786;28;20040;-87
2023/06/27 01:42:03;;;;;;;10.52;6.65;;;;;;;17.27;78.71;100733.03;10482977;28;20063;-88
2023/06/27 01:47:06;;;;;;;10.27;6.03;;;;;;;17.31;79.28;100718.19;10484691;28;20411;-88
2023/06/27 01:52:12;;;;;;;9.82;6.68;;;;;;;17.27;79.01;100708.09;10480873;28;20529;-90
2023/06/27 01:57:14;;;;;;;12.18;6.88;;;;;;;17.28;78.59;100710.53;10434970;28;20043;-86
2023/06/27 02:02:17;;;;;;;11.65;6.38;;;;;;;17.38;77.73;100706.63;10474467;28;20036;-90
2023/06/27 02:07:19;;;;;;;13.65;6.70;;;;;;;17.45;78.47;100712.50;10480241;28;20044;-87
2023/06/27 02:12:21;;;;;;;10.18;6.30;;;;;;;17.53;78.90;100708.94;10463971;28;20059;-90
2023/06/27 02:17:23;;;;;;;10.27;6.82;;;;;;;17.58;78.65;100708.75;10505203;28;20032;-90
2023/06/27 02:22:26;;;;;;;17.13;6.57;;;;;;;17.63;78.11;100711.38;10484876;28;20048;-88
2023/06/27 02:27:28;;;;;;;12.45;6.95;;;;;;;17.67;78.05;100712.34;10517880;28;20407;-90
2023/06/27 02:32:30;;;;;;;12.30;5.95;;;;;;;17.67;76.79;100712.34;10499336;28;20131;-91
2023/06/27 02:37:34;;;;;;;12.43;7.05;;;;;;;17.78;76.01;100707.31;10500547;28;20033;-87
2023/06/27 02:42:39;;;;;;;12.60;7.50;;;;;;;17.83;75.49;100707.13;10502856;28;20052;-90
2023/06/27 02:47:41;;;;;;;11.68;6.72;;;;;;;17.87;74.51;100712.84;10481290;28;20043;-90
2023/06/27 02:52:43;;;;;;;11.05;6.60;;;;;;;17.89;73.87;100716.94;10456188;28;20040;-93
2023/06/27 02:57:46;;;;;;;11.02;7.22;;;;;;;17.90;73.92;100717.75;10486299;28;20029;-90
2023/06/27 03:02:48;;;;;;;9.75;6.40;;;;;;;17.98;73.89;100714.16;10480661;28;20043;-88
2023/06/27 03:07:51;;;;;;;12.30;6.53;;;;;;;18.12;73.92;100719.50;10509297;28;20058;-89
2023/06/27 03:12:53;;;;;;;10.88;6.55;;;;;;;18.17;73.07;100720.16;10512704;28;20043;-89
2023/06/27 03:17:56;;;;;;;12.57;6.63;;;;;;;18.19;72.35;100717.84;10474664;28;20056;-88
2023/06/27 03:22:58;;;;;;;9.93;6.38;;;;;;;18.26;72.66;100717.38;10472228;28;20040;-89
2023/06/27 03:28:02;;;;;;;11.40;6.35;;;;;;;18.41;72.88;100721.56;10493384;28;20036;-88
2023/06/27 03:33:05;;;;;;;12.23;6.78;;;;;;;18.55;71.08;100722.16;10463598;28;20040;-89
2023/06/27 03:38:07;;;;;;;11.65;6.97;;;;;;;18.66;71.03;100717.91;10473967;28;20036;-88
2023/06/27 03:43:12;;;;;;;11.68;7.38;;;;;;;18.97;70.00;100700.91;10489240;28;20565;-88
2023/06/27 03:48:15;;;;;;;10.27;6.18;;;;;;;19.25;68.84;100709.53;10461614;28;20041;-90
2023/06/27 03:53:17;;;;;;;12.52;7.32;;;;;;;19.54;67.24;100705.94;10505963;28;20040;-86
2023/06/27 03:58:19;;;;;;;11.20;6.20;;;;;;;19.83;67.19;100703.06;10497663;28;20040;-86
2023/06/27 04:03:21;;;;;;;11.48;6.60;;;;;;;20.16;65.96;100702.25;10511288;28;20118;-87
2023/06/27 04:08:25;;;;;;;12.43;7.65;;;;;;;20.93;63.04;100689.34;10481127;28;20041;-91
2023/06/27 04:13:28;;;;;;;11.00;6.78;;;;;;;21.61;61.46;100677.47;10469831;28;20436;-87
2023/06/27 04:18:30;;;;;;;11.95;6.55;;;;;;;22.43;58.54;100677.78;10510526;28;20039;-87
2023/06/27 04:23:32;;;;;;;12.02;6.53;;;;;;;22.95;57.26;100678.66;10454633;28;20423;-89
2023/06/27 04:28:34;;;;;;;13.43;6.35;;;;;;;23.12;56.06;100679.09;10457433;28;20037;-92
2023/06/27 04:33:39;;;;;;;10.73;6.68;;;;;;;23.48;55.43;100679.88;10480161;28;20045;-90
2023/06/27 04:38:42;;;;;;;11.15;6.40;;;;;;;23.98;53.57;100678.09;10480942;28;20040;-87
2023/06/27 04:43:44;;;;;;;9.63;6.75;;;;;;;24.66;52.32;100677.34;10491183;28;20055;-89
2023/06/27 04:48:46;;;;;;;9.63;5.85;;;;;;;24.75;52.13;100672.28;10488749;28;20492;-91
2023/06/27 04:53:48;;;;;;;8.98;5.35;;;;;;;25.11;50.64;100668.03;10489740;28;20059;-90
2023/06/27 04:58:51;;;;;;;8.85;5.43;;;;;;;25.40;49.40;100660.84;10487432;28;20029;-93
2023/06/27 05:04:00;;;;;;;9.57;5.85;;;;;;;25.65;48.69;100654.72;10490688;28;20419;-91
2023/06/27 05:09:03;;;;;;;9.80;4.80;;;;;;;25.82;47.24;100643.69;10486646;28;20049;-90
2023/06/27 05:14:05;;;;;;;7.53;4.75;;;;;;;26.44;45.96;100646.75;10507518;28;20047;-91
2023/06/27 05:19:11;;;;;;;9.02;5.28;;;;;;;26.48;44.91;100648.78;10505485;28;20036;-89
2023/06/27 05:24:13;;;;;;;6.75;4.50;;;;;;;26.60;45.25;100642.88;10476189;28;20044;-89
2023/06/27 05:29:16;;;;;;;7.78;4.78;;;;;;;27.01;43.89;100652.84;10485934;28;20044;-88
2023/06/27 05:34:31;;;;;;;;;;;;;;;;;;;;;
2023/06/27 05:39:34;;;;;;;7.82;4.70;;;;;;;27.41;42.26;100653.84;10500802;28;20044;-89
2023/06/27 05:44:36;;;;;;;6.78;4.80;;;;;;;27.48;42.33;100645.44;10456564;28;20063;-89
2023/06/27 05:49:38;;;;;;;8.73;4.88;;;;;;;27.83;39.90;100646.81;10498646;28;20519;-87
2023/06/27 05:54:41;;;;;;;6.68;4.55;;;;;;;27.73;39.86;100642.75;10489089;28;20052;-91
2023/06/27 05:59:44;;;;;;;6.72;4.95;;;;;;;27.74;40.45;100635.91;10482394;28;21841;-89
2023/06/27 06:04:46;;;;;;;6.63;4.28;;;;;;;28.28;39.79;100639.66;10476779;28;20036;-88
2023/06/27 06:09:48;;;;;;;8.02;4.28;;;;;;;28.21;39.31;100622.69;10482696;28;20041;-86
2023/06/27 06:14:50;;;;;;;7.97;4.03;;;;;;;28.37;38.64;100631.63;10493499;28;20048;-85
2023/06/27 06:19:53;;;;;;;5.25;4.50;;;;;;;28.73;38.11;100631.59;10491855;28;20063;-87
2023/06/27 06:24:55;;;;;;;6.32;4.80;;;;;;;28.54;38.74;100632.81;10466886;28;20049;-85
2023/06/27 06:29:57;;;;;;;5.22;4.47;;;;;;;28.75;38.32;100637.66;10502682;28;20047;-89
2023/06/27 06:34:59;;;;;;;6.90;4.80;;;;;;;28.99;38.16;100636.84;10437252;28;20040;-91
2023/06/27 06:40:03;;;;;;;5.47;4.43;;;;;;;29.23;37.09;100640.00;10457183;28;20135;-86
2023/06/27 06:45:08;;;;;;;8.73;4.95;;;;;;;29.86;36.20;100641.78;10479185;28;20120;-86
2023/06/27 06:50:10;;;;;;;7.80;4.63;;;;;;;30.55;35.12;100632.41;10494439;28;20042;-86
2023/06/27 06:55:13;;;;;;;7.85;4.90;;;;;;;30.22;35.76;100630.25;10494696;28;20579;-89
2023/06/27 07:00:17;;;;;;;6.72;4.63;;;;;;;30.20;36.14;100636.34;10493960;28;20036;-85
2023/06/27 07:05:19;;;;;;;7.35;4.80;;;;;;;30.06;35.98;100627.13;10460490;28;20051;-85
2023/06/27 07:10:21;;;;;;;8.02;4.55;;;;;;;30.30;35.72;100626.94;10478501;28;20036;-85
2023/06/27 07:15:29;;;;;;;8.27;5.25;;;;;;;30.76;35.09;100625.78;10477938;28;20043;-86
2023/06/27 07:20:30;;;;;;;;;;;;;;;31.29;35.54;100615.09;10486065;28;20403;-86
2023/06/27 07:25:33;;;;;;;7.38;5.13;;;;;;;31.41;33.56;100618.16;10491968;28;20189;-86
2023/06/27 07:30:35;;;;;;;4.82;4.05;;;;;;;31.19;33.21;100606.28;10451610;28;20044;-88
2023/06/27 07:35:37;;;;;;;7.75;5.47;;;;;;;31.87;32.24;100594.06;10479031;28;20040;-87
2023/06/27 07:40:39;;;;;;;7.18;5.13;;;;;;;31.30;33.22;100596.88;10476191;28;20028;-86
2023/06/27 07:45:42;;;;;;;6.68;5.35;;;;;;;31.17;33.22;100594.56;10486306;28;20075;-87
2023/06/27 07:50:44;;;;;;;7.55;5.57;;;;;;;31.95;31.69;100586.25;10477479;28;20052;-89
2023/06/27 07:55:46;;;;;;;7.80;5.68;;;;;;;30.34;33.67;100597.78;10451669;28;20404;-86
2023/06/27 08:00:48;;;;;;;7.10;5.20;;;;;;;30.69;32.92;100585.34;10503646;28;20036;-88
2023/06/27 08:05:53;;;;;;;7.80;4.95;;;;;;;30.06;33.35;100574.16;10494151;28;20510;-88
2023/06/27 08:10:58;;;;;;;9.48;4.68;;;;;;;29.28;34.99;100571.75;10502852;28;20094;-87
2023/06/27 08:16:00;;;;;;;6.68;4.70;;;;;;;28.75;34.47;100567.03;10473535;28;20036;-89
2023/06/27 08:21:05;;;;;;;6.50;4.78;;;;;;;28.32;33.75;100569.13;10478610;28;20055;-85
2023/06/27 08:26:07;;;;;;;6.80;4.50;;;;;;;28.97;34.63;100565.78;10478016;28;20036;-89
2023/06/27 08:31:11;;;;;;;8.43;5.60;;;;;;;29.58;33.35;100557.88;10489684;28;20041;-87
2023/06/27 08:36:13;;;;;;;6.10;4.63;;;;;;;29.36;33.92;100560.00;10484377;28;20047;-86
2023/06/27 08:41:16;;;;;;;6.95;4.78;;;;;;;30.57;32.43;100566.84;10474958;28;20052;-84
2023/06/27 08:46:20;;;;;;;6.72;5.28;;;;;;;30.94;31.28;100565.28;10486243;28;20049;-86
2023/06/27 08:51:23;;;;;;;5.60;4.82;;;;;;;29.65;32.92;100562.69;10500320;28;20056;-83
2023/06/27 08:56:25;;;;;;;8.15;5.32;;;;;;;28.27;34.90;100561.84;10453978;28;20056;-83
2023/06/27 09:01:31;;;;;;;5.28;3.67;;;;;;;29.30;33.58;100558.00;10489834;28;20032;-85
2023/06/27 09:06:33;;;;;;;6.03;4.43;;;;;;;28.43;35.52;100550.94;10479656;28;20558;-85
2023/06/27 09:11:36;;;;;;;7.55;4.90;;;;;;;28.03;35.48;100560.63;10490140;28;20044;-85
2023/06/27 09:16:38;;;;;;;4.55;3.67;;;;;;;27.52;36.50;100560.91;10467635;28;20040;-85
2023/06/27 09:21:40;;;;;;;7.68;5.22;;;;;;;26.79;38.06;100549.69;10461892;28;20048;-83
2023/06/27 09:26:42;;;;;;;7.03;4.80;;;;;;;26.25;38.91;100553.31;10473827;28;20043;-84
2023/06/27 09:31:45;;;;;;;6.57;4.93;;;;;;;26.20;39.26;100546.03;10453642;28;20045;-84
2023/06/27 09:37:01;;;;;;;7.53;4.15;;;;;;;25.96;38.96;100541.03;10454875;28;20517;-84
2023/06/27 09:42:03;;;;;;;8.07;5.10;;;;;;;26.00;39.21;100555.91;10451863;28;20048;-85
2023/06/27 09:47:10;;;;;;;7.47;5.45;;;;;;;25.78;39.29;100563.34;10471058;28;20041;-84
2023/06/27 09:52:12;;;;;;;;;;;;;;;25.67;39.26;100551.94;10452389;28;20037;-87
2023/06/27 09:57:16;;;;;;;9.50;4.40;;;;;;;25.68;40.63;100555.59;10451835;28;20419;-83
2023/06/27 10:02:18;;;;;;;7.22;4.78;;;;;;;25.79;40.23;100546.09;10456550;28;20045;-85
2023/06/27 10:07:21;;;;;;;5.88;4.72;;;;;;;26.01;39.48;100549.09;10451746;28;20495;-87
2023/06/27 10:12:23;;;;;;;6.03;4.60;;;;;;;26.15;39.61;100547.22;10452265;28;20037;-88
2023/06/27 10:17:28;;;;;;;8.13;4.78;;;;;;;26.12;39.08;100542.38;10462096;28;20040;-84
2023/06/27 10:22:31;;;;;;;6.00;4.00;;;;;;;26.10;39.15;100541.16;10480073;28;20036;-88
2023/06/27 10:27:35;;;;;;;9.05;4.90;;;;;;;25.85;38.93;100535.28;10461926;28;20044;-87
2023/06/27 10:32:43;;;;;;;7.15;4.53;;;;;;;25.80;39.40;100538.47;10500115;28;20040;-88
2023/06/27 10:38:05;;;;;;;7.60;5.15;;;;;;;25.89;38.47;100522.09;10474601;28;20040;-86
2023/06/27 10:43:07;;;;;;;4.60;3.42;;;;;;;25.94;37.99;100537.78;10480689;28;20064;-87
2023/06/27 10:48:09;;;;;;;7.82;4.93;;;;;;;25.78;38.60;100529.63;10493922;28;21326;-87
2023/06/27 10:53:16;;;;;;;5.18;3.83;;;;;;;25.74;38.20;100518.34;10463689;28;20419;-90
2023/06/27 10:58:26;;;;;;;7.78;4.40;;;;;;;25.58;38.65;100508.50;10479550;28;20488;-90
2023/06/27 11:03:32;;;;;;;5.88;4.35;;;;;;;25.41;38.59;100499.50;10449101;28;20380;-89
2023/06/27 11:08:34;;;;;;;7.40;3.95;;;;;;;25.32;38.43;100489.75;10477231;28;20040;-90
2023/06/27 11:13:43;;;;;;;6.80;4.30;;;;;;;25.32;38.80;100493.38;10462433;28;20047;-89
2023/06/27 11:18:45;;;;;;;5.03;3.90;;;;;;;25.36;38.43;100488.63;10478473;28;20045;-90
2023/06/27 11:23:48;;;;;;;5.72;4.40;;;;;;;25.57;38.10;100481.59;10481365;28;20074;-89
2023/06/27 11:28:50;;;;;;;5.60;4.00;;;;;;;25.65;38.05;100467.22;10452656;28;20040;-89
2023/06/27 11:33:58;;;;;;;9.02;4.30;;;;;;;25.80;40.08;100460.56;10475211;28;20044;-90
2023/06/27 11:39:00;;;;;;;6.45;4.30;;;;;;;25.79;40.56;100460.94;10494341;28;20040;-89
2023/06/27 11:44:09;;;;;;;5.75;4.43;;;;;;;25.61;41.56;100462.78;10461951;28;20063;-90
2023/06/27 11:49:11;;;;;;;6.68;4.38;;;;;;;25.55;38.63;100457.50;10493811;28;20037;-89
2023/06/27 11:54:17;;;;;;;5.68;3.70;;;;;;;25.27;38.19;100462.84;10454320;28;20067;-89
2023/06/27 11:59:30;;;;;;;5.63;4.03;;;;;;;25.10;38.90;100460.63;10510333;28;20517;-88
2023/06/27 12:04:32;;;;;;;5.03;4.00;;;;;;;25.00;39.13;100450.13;10456965;28;20542;-87
2023/06/27 12:09:34;;;;;;;5.82;4.30;;;;;;;25.10;40.03;100449.41;10506610;28;20033;-90
2023/06/27 12:14:36;;;;;;;8.63;4.60;;;;;;;25.09;38.77;100454.22;10470295;28;20044;-87
2023/06/27 12:19:39;;;;;;;5.60;3.80;;;;;;;25.02;38.80;100447.72;10452777;28;20044;-89
2023/06/27 12:24:41;;;;;;;7.88;4.22;;;;;;;24.81;39.38;100440.63;10482986;28;20055;-91
2023/06/27 12:29:43;;;;;;;5.15;3.75;;;;;;;24.76;39.07;100440.97;10463424;28;20446;-90
2023/06/27 12:34:45;;;;;;;5.53;4.07;;;;;;;24.89;39.03;100431.09;10456804;28;20047;-90
2023/06/27 12:39:47;;;;;;;4.95;3.50;;;;;;;24.87;38.78;100427.06;10464411;28;20036;-86
2023/06/27 12:44:54;;;;;;;6.57;3.63;;;;;;;25.00;38.48;100427.66;10492243;28;20051;-88
2023/06/27 12:49:56;;;;;;;8.15;4.50;;;;;;;24.99;38.90;100431.59;10484167;28;20040;-91
2023/06/27 12:54:58;;;;;;;5.30;3.58;;;;;;;25.04;38.77;100425.69;10458378;28;20118;-90
2023/06/27 13:00:03;;;;;;;5.30;4.40;;;;;;;25.16;38.17;100409.34;10472523;28;20411;-88
2023/06/27 13:05:06;;;;;;;5.90;4.15;;;;;;;25.25;38.56;100407.06;10458228;28;20526;-89
2023/06/27 13:10:09;;;;;;;5.70;3.80;;;;;;;25.31;37.66;100395.47;10510606;28;20051;-86
2023/06/27 13:15:13;;;;;;;8.32;3.67;;;;;;;25.35;36.58;100394.31;10452442;28;20459;-85
2023/06/27 13:20:15;;;;;;;5.93;3.97;;;;;;;25.31;36.19;100392.66;10432767;28;20032;-87
2023/06/27 13:25:17;;;;;;;4.85;3.72;;;;;;;25.18;36.88;100390.16;10475551;28;20048;-86
2023/06/27 13:30:21;;;;;;;6.35;3.80;;;;;;;25.13;37.27;100386.84;10459964;28;20039;-88
2023/06/27 13:35:23;;;;;;;7.15;4.22;;;;;;;25.20;37.66;100384.13;10474186;28;20529;-87
2023/06/27 13:40:26;;;;;;;6.28;4.45;;;;;;;25.26;36.85;100391.00;10487734;28;20048;-89
2023/06/27 13:45:28;;;;;;;6.70;4.00;;;;;;;25.13;35.90;100370.81;10477948;28;20048;-89
2023/06/27 13:50:30;;;;;;;7.53;4.70;;;;;;;25.20;36.00;100370.09;10450194;28;20060;-85
2023/06/27 13:55:33;;;;;;;5.68;3.38;;;;;;;25.22;35.74;100373.31;10481295;28;20419;-83
2023/06/27 14:00:36;;;;;;;5.95;3.10;;;;;;;25.14;36.52;100371.63;10452429;28;20044;-85
2023/06/27 14:05:39;;;;;;;5.82;3.88;;;;;;;25.05;36.15;100371.16;10486693;28;20055;-83
2023/06/27 14:10:41;;;;;;;5.43;3.85;;;;;;;25.02;36.80;100360.69;10442750;28;20354;-84
2023/06/27 14:15:46;;;;;;;6.72;4.30;;;;;;;24.99;38.01;100375.44;10471003;28;20045;-83
2023/06/27 14:20:49;;;;;;;8.38;4.60;;;;;;;24.87;37.83;100380.16;10492380;28;20040;-85
2023/06/27 14:25:51;;;;;;;6.85;4.60;;;;;;;24.84;37.80;100385.75;10492629;28;20669;-85
2023/06/27 14:30:53;;;;;;;5.22;3.63;;;;;;;24.91;37.20;100368.97;10452487;28;20037;-83
2023/06/27 14:35:55;;;;;;;5.18;3.58;;;;;;;24.92;37.81;100365.78;10454950;28;20060;-83
2023/06/27 14:40:58;;;;;;;5.28;3.13;;;;;;;24.96;38.09;100363.00;10458461;28;20037;-86
2023/06/27 14:46:00;;;;;;;4.13;3.22;;;;;;;24.98;37.84;100357.00;10464853;28;20545;-85
2023/06/27 14:51:02;;;;;;;6.30;3.92;;;;;;;24.96;37.63;100358.19;10458226;28;20495;-83
2023/06/27 14:56:06;;;;;;;5.97;4.50;;;;;;;24.96;37.32;100363.81;10475652;28;20101;-84
2023/06/27 15:01:09;;;;;;;5.13;3.85;;;;;;;24.90;37.29;100356.13;10447553;28;20047;-83
2023/06/27 15:06:14;;;;;;;5.05;3.78;;;;;;;24.91;36.93;100357.75;10479861;28;20041;-82
2023/06/27 15:11:17;;;;;;;5.05;3.95;;;;;;;24.98;38.06;100357.81;10489024;28;20862;-85
2023/06/27 15:16:19;;;;;;;5.35;3.40;;;;;;;25.07;37.60;100354.72;10482886;28;20039;-84
2023/06/27 15:21:21;;;;;;;7.07;4.28;;;;;;;25.03;39.77;100354.69;10464265;28;20097;-85
2023/06/27 15:26:23;;;;;;;5.80;3.80;;;;;;;24.98;41.44;100362.59;10458577;28;20525;-84
2023/06/27 15:31:26;;;;;;;8.38;4.30;;;;;;;24.83;42.44;100364.47;10488694;28;20044;-85
2023/06/27 15:36:30;;;;;;;6.60;4.57;;;;;;;24.52;42.83;100369.34;10502927;28;20525;-85
2023/06/27 15:41:33;;;;;;;5.78;4.50;;;;;;;24.34;43.41;100369.13;10466097;28;20049;-84
2023/06/27 15:46:36;;;;;;;8.02;4.47;;;;;;;24.12;43.81;100371.97;10471050;28;20049;-86
2023/06/27 15:51:38;;;;;;;7.35;3.92;;;;;;;23.98;44.41;100372.59;10486809;28;20037;-85
2023/06/27 15:56:40;;;;;;;7.10;5.35;;;;;;;23.85;44.60;100380.41;10489934;28;20128;-86
2023/06/27 16:01:43;;;;;;;5.32;3.63;;;;;;;23.74;45.22;100396.22;10489586;28;20040;-85
2023/06/27 16:06:45;;;;;;;3.97;3.30;;;;;;;23.66;45.90;100392.53;10499665;28;20491;-83
2023/06/27 16:11:47;;;;;;;7.43;3.95;;;;;;;23.53;46.97;100402.25;10488822;28;20044;-86
2023/06/27 16:16:50;;;;;;;7.70;5.60;;;;;;;23.40;45.93;100410.03;10468123;28;20059;-86
2023/06/27 16:21:52;;;;;;;9.32;5.22;;;;;;;23.22;47.20;100408.91;10484522;28;20412;-85
2023/06/27 16:26:54;;;;;;;5.50;3.92;;;;;;;23.15;47.57;100414.41;10467593;28;20048;-83
2023/06/27 16:31:57;;;;;;;5.78;3.80;;;;;;;23.05;48.45;100401.00;10509249;28;20416;-83
2023/06/27 16:36:59;;;;;;;8.65;4.28;;;;;;;23.00;48.22;100407.72;10478191;28;20391;-83
2023/06/27 16:42:02;;;;;;;5.53;3.78;;;;;;;22.96;47.61;100406.03;10489857;28;20025;-85
2023/06/27 16:47:04;;;;;;;5.20;3.65;;;;;;;23.00;47.79;100412.50;10489747;28;20041;-86
2023/06/27 16:52:07;;;;;;;9.05;4.32;;;;;;;22.97;46.78;100408.47;10520230;28;20044;-85
2023/06/27 16:57:09;;;;;;;8.90;5.32;;;;;;;22.97;46.77;100410.47;10458844;28;20446;-82
2023/06/27 17:02:11;;;;;;;5.57;4.05;;;;;;;22.95;47.42;100407.22;10477903;28;20029;-86
2023/06/27 17:07:15;;;;;;;7.72;5.18;;;;;;;22.95;47.55;100438.00;10490375;28;20036;-85
2023/06/27 17:12:17;;;;;;;5.18;3.85;;;;;;;22.81;48.76;100427.31;10466213;28;20048;-82
2023/06/27 17:17:19;;;;;;;4.95;3.55;;;;;;;22.59;47.93;100430.84;10476077;28;20055;-86
2023/06/27 17:22:21;;;;;;;9.85;3.78;;;;;;;22.32;48.89;100418.66;10486203;28;20044;-82
2023/06/27 17:27:23;;;;;;;5.85;4.10;;;;;;;22.15;49.94;100414.28;10460225;28;20044;-83
2023/06/27 17:32:25;;;;;;;6.82;4.20;;;;;;;22.04;50.53;100416.00;10463663;28;20043;-81
2023/06/27 17:37:28;;;;;;;6.13;4.18;;;;;;;21.96;51.68;100415.84;10473978;28;20044;-86
2023/06/27 17:42:30;;;;;;;9.05;4.00;;;;;;;21.88;51.75;100414.06;10470677;28;20047;-84
2023/06/27 17:47:33;;;;;;;6.30;4.28;;;;;;;21.76;52.55;100416.97;10486098;28;20040;-85
2023/06/27 17:52:35;;;;;;;6.43;3.97;;;;;;;21.61;53.33;100404.63;10451510;28;20045;-83
2023/06/27 17:57:37;;;;;;;5.28;3.85;;;;;;;21.56;54.46;100404.09;10470790;28;20040;-83
2023/06/27 18:02:40;;;;;;;5.93;4.28;;;;;;;21.44;55.64;100409.75;10469817;28;20029;-87
2023/06/27 18:07:42;;;;;;;5.30;3.88;;;;;;;21.33;55.73;100410.28;10457735;28;20126;-87
2023/06/27 18:12:46;;;;;;;4.63;3.17;;;;;;;21.23;57.26;100412.78;10443987;28;20147;-85
2023/06/27 18:17:48;;;;;;;7.35;4.57;;;;;;;21.10;57.27;100402.84;10492512;28;20044;-83
2023/06/27 18:22:59;;;;;;;4.50;3.65;;;;;;;21.02;58.11;100396.28;10502123;28;20041;-83
2023/06/27 18:28:01;;;;;;;8.77;4.57;;;;;;;20.99;58.88;100394.19;10452282;28;20044;-86
2023/06/27 18:33:06;;;;;;;5.65;4.03;;;;;;;20.85;59.05;100408.59;10477173;28;20040;-85
2023/06/27 18:38:09;;;;;;;4.43;3.08;;;;;;;20.69;60.37;100402.16;10468471;28;20418;-83
2023/06/27 18:43:11;;;;;;;5.13;3.40;;;;;;;20.64;60.75;100397.59;10460509;28;20056;-86
2023/06/27 18:48:14;;;;;;;7.97;4.40;;;;;;;20.64;60.85;100394.81;10498118;28;20040;-87
2023/06/27 18:53:18;;;;;;;8.98;4.85;;;;;;;20.62;60.96;100408.31;10482900;28;20048;-87
2023/06/27 18:58:21;;;;;;;6.97;4.45;;;;;;;20.53;61.08;100404.06;10474143;28;20415;-87
2023/06/27 19:03:23;;;;;;;7.20;4.15;;;;;;;20.57;61.25;100400.22;10481063;28;20033;-87
2023/06/27 19:08:25;;;;;;;7.80;3.78;;;;;;;20.63;61.40;100396.00;10475206;28;20598;-84
2023/06/27 19:13:27;;;;;;;6.65;4.70;;;;;;;20.60;60.83;100401.47;10505042;28;20044;-84
2023/06/27 19:18:30;;;;;;;5.75;3.97;;;;;;;20.51;61.42;100401.63;10454542;28;20405;-88
2023/06/27 19:23:32;;;;;;;6.85;3.80;;;;;;;20.44;61.66;100402.22;10497453;28;20051;-85
2023/06/27 19:28:36;;;;;;;9.07;4.13;;;;;;;20.36;61.63;100405.13;10440948;28;20408;-85
2023/06/27 19:33:40;;;;;;;5.50;4.13;;;;;;;20.18;62.38;100408.19;10481042;28;20048;-85
2023/06/27 19:38:45;;;;;;;6.85;4.38;;;;;;;20.07;62.44;100409.81;10504399;28;20648;-87
2023/06/27 19:43:48;;;;;;;10.45;5.00;;;;;;;20.15;61.93;100413.66;10478370;28;20056;-87
2023/06/27 19:48:50;;;;;;;7.10;4.55;;;;;;;20.06;60.96;100418.53;10487014;28;20041;-87
2023/06/27 19:53:52;;;;;;;9.05;4.95;;;;;;;19.96;61.66;100424.56;10442616;28;20041;-86
2023/06/27 19:58:54;;;;;;;6.53;4.22;;;;;;;19.85;61.88;100418.69;10458448;28;20036;-85
2023/06/27 20:03:56;;;;;;;8.48;4.38;;;;;;;19.91;61.96;100406.13;10437518;28;20614;-89
2023/06/27 20:08:58;;;;;;;7.90;4.97;;;;;;;19.91;61.82;100416.47;10418103;28;20045;-87
2023/06/27 20:14:00;;;;;;;8.02;3.90;;;;;;;19.82;62.18;100422.97;10424205;28;20515;-88
2023/06/27 20:19:02;;;;;;;9.18;3.97;;;;;;;19.79;61.21;100414.50;10398449;28;20041;-88
2023/06/27 20:24:05;;;;;;;9.38;4.43;;;;;;;19.77;62.41;100420.41;10454944;28;20513;-87
2023/06/27 20:29:07;;;;;;;9.25;4.25;;;;;;;19.64;62.87;100437.47;10480548;28;20059;-88
2023/06/27 20:34:10;;;;;;;6.97;4.50;;;;;;;19.55;61.96;100451.47;10452282;28;20041;-87
2023/06/27 20:39:12;;;;;;;7.65;3.97;;;;;;;19.63;61.23;100458.13;10435525;28;20044;-85
2023/06/27 20:44:14;;;;;;;8.15;5.10;;;;;;;19.73;61.37;100449.28;10448579;28;20522;-85
2023/06/27 20:49:17;;;;;;;6.00;4.25;;;;;;;19.80;61.41;100450.34;10434589;28;20033;-85
2023/06/27 20:54:19;;;;;;;8.27;4.50;;;;;;;19.81;61.98;100462.31;10430616;28;20045;-85
2023/06/27 20:59:23;;;;;;;7.30;4.70;;;;;;;19.79;62.05;100448.75;10465088;28;20037;-85
2023/06/27 21:04:29;;;;;;;6.60;4.65;;;;;;;19.69;61.47;100457.53;10419626;28;20055;-85
2023/06/27 21:09:31;;;;;;;6.47;4.70;;;;;;;19.60;61.75;100458.78;10450776;28;20037;-85
2023/06/27 21:14:34;;;;;;;7.28;4.70;;;;;;;19.65;62.44;100458.59;10417287;28;20043;-85
2023/06/27 21:19:36;;;;;;;6.45;4.57;;;;;;;19.62;62.43;100451.75;10458254;28;20060;-87
2023/06/27 21:24:38;;;;;;;6.53;4.38;;;;;;;19.61;62.53;100449.28;10445373;28;20527;-87
2023/06/27 21:29:40;;;;;;;6.75;4.25;;;;;;;19.64;62.18;100438.28;10469804;28;20041;-86
2023/06/27 21:34:43;;;;;;;6.00;4.40;;;;;;;19.61;61.27;100430.59;10465036;28;20492;-86
2023/06/27 21:39:45;;;;;;;7.32;4.65;;;;;;;19.59;62.09;100427.34;10449965;28;20052;-86
2023/06/27 21:44:47;;;;;;;7.13;4.78;;;;;;;19.55;61.26;100423.66;10435195;28;20051;-86
2023/06/27 21:49:49;;;;;;;5.60;3.90;;;;;;;19.55;61.41;100421.69;10440592;28;20045;-86
2023/06/27 21:54:51;;;;;;;6.10;4.43;;;;;;;19.57;61.24;100424.94;10428808;28;20045;-84
2023/06/27 21:59:53;;;;;;;5.70;4.25;;;;;;;19.58;61.30;100411.81;10418328;28;20055;-84
2023/06/27 22:04:56;;;;;;;8.20;3.92;;;;;;;19.63;61.45;100416.38;10445681;28;20037;-83
2023/06/27 22:09:59;;;;;;;5.63;4.30;;;;;;;19.63;61.39;100389.34;10429823;28;20052;-83
2023/06/27 22:15:02;;;;;;;6.20;4.70;;;;;;;19.60;61.35;100395.56;10438859;28;20407;-83
2023/06/27 22:20:06;;;;;;;7.28;4.88;;;;;;;19.55;61.15;100399.41;10455148;28;20523;-83
2023/06/27 22:25:09;;;;;;;8.32;5.13;;;;;;;19.50;61.90;100396.84;10451698;28;20807;-83
2023/06/27 22:30:11;;;;;;;6.10;4.78;;;;;;;19.52;62.23;100396.50;10449233;28;20040;-87
2023/06/27 22:35:14;;;;;;;7.60;4.80;;;;;;;19.47;63.02;100391.97;10440545;28;20069;-82
2023/06/27 22:40:16;;;;;;;10.60;6.05;;;;;;;19.42;63.04;100397.75;10428839;28;20045;-82
2023/06/27 22:45:19;;;;;;;9.45;5.50;;;;;;;19.32;63.77;100397.41;10422546;28;20051;-83
2023/06/27 22:50:21;;;;;;;13.15;6.43;;;;;;;19.19;64.01;100402.94;10465902;28;20052;-83
2023/06/27 22:55:23;;;;;;;11.98;5.75;;;;;;;19.12;64.76;100399.09;10466588;28;20299;-83
2023/06/27 23:00:25;;;;;;;13.48;5.28;;;;;;;19.06;64.40;100400.47;10438759;28;20041;-83
2023/06/27 23:05:27;;;;;;;10.02;6.22;;;;;;;18.92;64.91;100406.38;10453028;28;20044;-82
2023/06/27 23:10:30;;;;;;;8.73;5.38;;;;;;;18.83;65.42;100400.06;10449220;28;20507;-82